createdAt,value
2017-08-26T00:01:46.792Z,10.16
2017-08-26T00:04:15.066Z,9.32
2017-08-26T00:06:43.332Z,7.88
2017-08-26T00:09:11.651Z,8.48
2017-08-26T00:11:39.919Z,6.68
2017-08-26T00:14:08.179Z,7.34
2017-08-26T00:16:36.453Z,7.34
2017-08-26T00:19:04.708Z,8.16
2017-08-26T00:21:32.227Z,7.48
2017-08-26T00:24:00.472Z,8.36
2017-08-26T00:26:28.753Z,9.34
2017-08-26T00:28:57.013Z,7.08
2017-08-26T00:31:25.309Z,6.70
2017-08-26T00:33:53.585Z,9.12
2017-08-26T00:36:21.881Z,8.96
2017-08-26T00:38:50.148Z,9.34
2017-08-26T00:41:18.395Z,9.28
2017-08-26T00:43:46.698Z,7.02
2017-08-26T00:46:14.959Z,7.54
2017-08-26T00:48:43.224Z,9.64
2017-08-26T00:51:11.499Z,7.86
2017-08-26T00:53:39.773Z,8.08
2017-08-26T00:56:08.059Z,6.28
2017-08-26T00:58:36.318Z,7.38
2017-08-26T01:01:04.616Z,7.16
2017-08-26T01:03:32.888Z,7.96
2017-08-26T01:06:01.143Z,12.38
2017-08-26T01:08:29.424Z,7.80
2017-08-26T01:10:57.732Z,6.72
2017-08-26T01:13:26.002Z,10.94
2017-08-26T01:15:54.291Z,7.42
2017-08-26T01:18:22.573Z,6.96
2017-08-26T01:20:51.825Z,14.30
2017-08-26T01:23:20.119Z,8.74
2017-08-26T01:25:48.369Z,8.84
2017-08-26T01:28:16.664Z,11.80
2017-08-26T01:30:44.941Z,9.84
2017-08-26T01:33:13.237Z,9.84
2017-08-26T01:35:41.500Z,9.98
2017-08-26T01:38:09.809Z,7.32
2017-08-26T01:40:39.139Z,8.66
2017-08-26T01:43:07.406Z,15.56
2017-08-26T01:45:35.664Z,7.18
2017-08-26T01:48:03.965Z,12.48
2017-08-26T01:50:32.238Z,11.52
2017-08-26T01:53:00.499Z,9.80
2017-08-26T01:55:28.792Z,10.12
2017-08-26T01:57:57.101Z,8.28
2017-08-26T02:00:25.369Z,9.12
2017-08-26T02:02:53.630Z,8.98
2017-08-26T02:05:21.925Z,10.10
2017-08-26T02:07:50.184Z,9.22
2017-08-26T02:10:18.477Z,11.80
2017-08-26T02:12:46.741Z,8.44
2017-08-26T02:15:15.084Z,9.18
2017-08-26T02:17:43.357Z,7.44
2017-08-26T02:20:11.623Z,8.58
2017-08-26T02:22:39.916Z,8.64
2017-08-26T02:25:08.213Z,7.82
2017-08-26T02:27:36.482Z,9.02
2017-08-26T02:30:04.742Z,19.04
2017-08-26T02:32:33.081Z,10.32
2017-08-26T02:35:01.353Z,9.56
2017-08-26T02:37:29.620Z,7.32
2017-08-26T02:39:57.925Z,9.98
2017-08-26T02:42:26.189Z,9.64
2017-08-26T02:44:54.495Z,9.66
2017-08-26T02:47:22.766Z,9.30
2017-08-26T02:49:51.028Z,7.28
2017-08-26T02:52:19.324Z,8.00
2017-08-26T02:54:47.589Z,7.80
2017-08-26T02:57:15.891Z,7.74
2017-08-26T02:59:44.156Z,10.20
2017-08-26T03:02:12.421Z,8.52
2017-08-26T03:04:40.708Z,7.72
2017-08-26T03:07:08.969Z,8.32
2017-08-26T03:09:37.260Z,8.30
2017-08-26T03:12:05.553Z,11.22
2017-08-26T03:14:33.856Z,8.38
2017-08-26T03:17:02.113Z,9.50
2017-08-26T03:19:30.385Z,11.34
2017-08-26T03:21:58.686Z,12.26
2017-08-26T03:24:27.922Z,9.16
2017-08-26T03:26:56.213Z,7.70
2017-08-26T03:29:24.481Z,11.48
2017-08-26T03:31:52.775Z,12.84
2017-08-26T03:34:21.037Z,9.68
2017-08-26T03:36:49.397Z,10.40
2017-08-26T03:39:17.663Z,9.90
2017-08-26T03:41:45.936Z,11.58
2017-08-26T03:44:14.231Z,14.70
2017-08-26T03:46:42.528Z,13.20
2017-08-26T03:49:10.791Z,9.32
2017-08-26T03:51:39.105Z,12.92
2017-08-26T03:54:07.377Z,9.84
2017-08-26T03:56:35.684Z,10.02
2017-08-26T03:59:03.968Z,11.98
2017-08-26T04:01:32.240Z,12.46
2017-08-26T04:04:00.538Z,14.08
2017-08-26T04:06:28.803Z,10.46
2017-08-26T04:08:57.119Z,14.36
2017-08-26T04:11:25.381Z,12.52
2017-08-26T04:13:53.652Z,10.38
2017-08-26T04:16:21.949Z,13.88
2017-08-26T04:18:50.261Z,13.12
2017-08-26T04:21:18.529Z,11.28
2017-08-26T04:23:46.798Z,9.54
2017-08-26T04:26:15.087Z,11.42
2017-08-26T04:28:43.364Z,13.42
2017-08-26T04:31:11.680Z,12.38
2017-08-26T04:33:39.954Z,19.56
2017-08-26T04:36:08.274Z,13.76
2017-08-26T04:38:36.545Z,11.38
2017-08-26T04:41:04.827Z,13.56
2017-08-26T04:43:33.131Z,10.82
2017-08-26T04:46:01.459Z,11.54
2017-08-26T04:48:29.771Z,24.16
2017-08-26T04:50:58.057Z,11.14
2017-08-26T04:53:26.326Z,13.98
2017-08-26T04:55:54.625Z,9.62
2017-08-26T04:58:22.889Z,8.90
2017-08-26T05:00:51.152Z,12.12
2017-08-26T05:03:19.456Z,12.92
2017-08-26T05:05:47.728Z,11.02
2017-08-26T05:08:16.030Z,12.36
2017-08-26T05:10:44.332Z,13.20
2017-08-26T05:13:12.635Z,12.34
2017-08-26T05:15:40.904Z,14.12
2017-08-26T05:18:09.167Z,9.86
2017-08-26T05:20:37.467Z,12.90
2017-08-26T05:23:05.740Z,14.44
2017-08-26T05:25:34.037Z,10.68
2017-08-26T05:28:02.327Z,11.36
2017-08-26T05:30:30.637Z,12.10
2017-08-26T05:32:58.912Z,12.38
2017-08-26T05:35:27.181Z,11.20
2017-08-26T05:37:54.713Z,11.94
2017-08-26T05:40:22.972Z,10.50
2017-08-26T05:42:51.301Z,14.88
2017-08-26T05:45:19.589Z,15.46
2017-08-26T05:47:47.857Z,11.92
2017-08-26T05:50:16.148Z,11.68
2017-08-26T05:52:44.413Z,11.10
2017-08-26T05:55:12.724Z,15.78
2017-08-26T05:57:40.986Z,10.54
2017-08-26T06:00:09.250Z,11.66
2017-08-26T06:02:37.540Z,10.40
2017-08-26T06:05:05.832Z,15.92
2017-08-26T06:07:34.136Z,13.68
2017-08-26T06:10:02.405Z,11.28
2017-08-26T06:12:30.659Z,14.90
2017-08-26T06:14:58.968Z,18.04
2017-08-26T06:17:27.229Z,10.84
2017-08-26T06:19:55.491Z,15.58
2017-08-26T06:22:23.792Z,12.96
2017-08-26T06:24:52.055Z,14.96
2017-08-26T06:27:20.318Z,12.70
2017-08-26T06:29:48.621Z,10.88
2017-08-26T06:32:16.885Z,14.56
2017-08-26T06:34:45.173Z,11.70
2017-08-26T06:37:13.463Z,14.32
2017-08-26T06:39:41.760Z,14.46
2017-08-26T06:42:10.031Z,12.98
2017-08-26T06:44:38.300Z,18.64
2017-08-26T06:47:06.596Z,12.10
2017-08-26T06:49:34.864Z,16.40
2017-08-26T06:52:03.207Z,20.16
2017-08-26T06:54:31.473Z,14.26
2017-08-26T06:56:59.747Z,15.44
2017-08-26T06:59:28.044Z,15.12
2017-08-26T07:01:56.320Z,14.22
2017-08-26T07:04:24.615Z,17.74
2017-08-26T07:06:52.892Z,14.74
2017-08-26T07:09:21.195Z,15.30
2017-08-26T07:11:49.863Z,12.32
2017-08-26T07:14:18.465Z,17.14
2017-08-26T07:16:46.735Z,17.52
2017-08-26T07:19:14.997Z,14.94
2017-08-26T07:21:43.284Z,17.30
2017-08-26T07:24:11.572Z,19.78
2017-08-26T07:26:39.862Z,16.60
2017-08-26T07:29:08.157Z,18.54
2017-08-26T07:31:36.416Z,18.82
2017-08-26T07:34:04.709Z,21.30
2017-08-26T07:36:38.873Z,21.78
2017-08-26T07:39:07.171Z,23.34
2017-08-26T07:41:35.429Z,22.34
2017-08-26T07:44:03.704Z,23.24
2017-08-26T07:46:32.051Z,28.00
2017-08-26T07:49:00.320Z,25.52
2017-08-26T07:51:28.589Z,32.82
2017-08-26T07:53:56.876Z,32.10
2017-08-26T07:56:25.129Z,35.08
2017-08-26T07:58:53.414Z,31.04
2017-08-26T08:01:21.707Z,39.34
2017-08-26T08:03:50.001Z,38.18
2017-08-26T08:06:18.297Z,39.48
2017-08-26T08:08:46.591Z,38.10
2017-08-26T08:11:14.867Z,42.06
2017-08-26T08:13:43.168Z,39.90
2017-08-26T08:16:11.432Z,32.56
2017-08-26T08:18:39.692Z,42.24
2017-08-26T08:21:08.001Z,35.92
2017-08-26T08:23:36.264Z,42.62
2017-08-26T08:26:04.528Z,37.94
2017-08-26T08:28:32.822Z,44.06
2017-08-26T08:31:01.115Z,47.62
2017-08-26T08:33:29.381Z,47.84
2017-08-26T08:35:57.639Z,42.76
2017-08-26T08:38:25.944Z,40.72
2017-08-26T08:40:54.214Z,36.48
2017-08-26T08:43:22.493Z,33.34
2017-08-26T08:45:50.795Z,40.14
2017-08-26T08:48:19.082Z,41.34
2017-08-26T08:50:47.344Z,37.72
2017-08-26T08:53:15.633Z,45.72
2017-08-26T08:55:43.900Z,44.30
2017-08-26T08:58:12.196Z,41.40
2017-08-26T09:00:40.460Z,42.68
2017-08-26T09:03:08.748Z,43.06
2017-08-26T09:05:36.296Z,39.76
2017-08-26T09:08:04.557Z,43.02
2017-08-26T09:10:32.821Z,37.30
2017-08-26T09:13:01.107Z,33.34
2017-08-26T09:15:29.380Z,37.04
2017-08-26T09:17:57.702Z,40.56
2017-08-26T09:20:25.969Z,36.30
2017-08-26T09:22:54.236Z,36.18
2017-08-26T09:25:22.541Z,37.98
2017-08-26T09:27:50.806Z,40.36
2017-08-26T09:30:21.044Z,37.64
2017-08-26T09:32:49.304Z,42.00
2017-08-26T09:35:17.573Z,38.04
2017-08-26T09:37:45.868Z,37.44
2017-08-26T09:40:14.133Z,33.90
2017-08-26T09:42:42.438Z,37.92
2017-08-26T09:45:10.733Z,42.04
2017-08-26T09:47:39.037Z,35.40
2017-08-26T09:50:07.380Z,36.10
2017-08-26T09:52:35.645Z,36.38
2017-08-26T09:55:03.912Z,46.98
2017-08-26T09:57:32.214Z,46.62
2017-08-26T10:00:00.507Z,45.46
2017-08-26T10:02:28.767Z,47.06
2017-08-26T10:04:57.077Z,38.40
2017-08-26T10:07:25.337Z,41.98
2017-08-26T10:09:53.609Z,48.62
2017-08-26T10:12:21.911Z,46.88
2017-08-26T10:14:50.197Z,39.30
2017-08-26T10:17:18.499Z,46.60
2017-08-26T10:19:46.761Z,46.04
2017-08-26T10:22:15.030Z,39.80
2017-08-26T10:24:43.329Z,45.40
2017-08-26T10:27:11.596Z,43.02
2017-08-26T10:29:39.945Z,43.52
2017-08-26T10:32:08.216Z,40.76
2017-08-26T10:34:36.497Z,48.22
2017-08-26T10:37:04.810Z,41.12
2017-08-26T10:39:33.074Z,42.60
2017-08-26T10:42:01.339Z,43.36
2017-08-26T10:44:29.657Z,44.74
2017-08-26T10:46:57.923Z,43.08
2017-08-26T10:49:26.188Z,47.52
2017-08-26T10:51:54.508Z,37.74
2017-08-26T10:54:22.764Z,42.72
2017-08-26T10:56:51.044Z,54.24
2017-08-26T10:59:19.344Z,47.50
2017-08-26T11:01:47.654Z,49.08
2017-08-26T11:04:15.980Z,53.34
2017-08-26T11:06:44.241Z,46.06
2017-08-26T11:09:12.499Z,45.44
2017-08-26T11:11:40.790Z,38.84
2017-08-26T11:14:09.074Z,46.72
2017-08-26T11:16:37.348Z,53.92
2017-08-26T11:19:05.663Z,45.48
2017-08-26T11:21:33.928Z,51.08
2017-08-26T11:24:02.246Z,49.10
2017-08-26T11:26:30.516Z,49.00
2017-08-26T11:28:58.788Z,50.22
2017-08-26T11:31:27.084Z,44.90
2017-08-26T11:33:55.391Z,43.32
2017-08-26T11:36:23.676Z,46.56
2017-08-26T11:38:51.972Z,37.66
2017-08-26T11:41:20.239Z,43.10
2017-08-26T11:43:48.523Z,36.86
2017-08-26T11:46:16.802Z,39.62
2017-08-26T11:48:44.345Z,36.16
2017-08-26T11:51:12.618Z,40.28
2017-08-26T11:53:40.885Z,34.74
2017-08-26T11:56:09.182Z,37.28
2017-08-26T11:58:37.449Z,30.12
2017-08-26T12:01:05.743Z,32.76
2017-08-26T12:03:34.050Z,29.56
2017-08-26T12:06:02.324Z,40.22
2017-08-26T12:08:29.823Z,35.20
2017-08-26T12:10:58.118Z,32.82
2017-08-26T12:13:26.424Z,26.04
2017-08-26T12:15:53.934Z,30.96
2017-08-26T12:18:22.199Z,30.74
2017-08-26T12:20:50.531Z,33.50
2017-08-26T12:23:18.792Z,33.04
2017-08-26T12:25:47.052Z,33.10
2017-08-26T12:28:15.347Z,33.60
2017-08-26T12:30:43.649Z,33.20
2017-08-26T12:33:11.921Z,29.84
2017-08-26T12:35:40.264Z,35.32
2017-08-26T12:38:08.585Z,29.98
2017-08-26T12:40:36.948Z,27.28
2017-08-26T12:43:05.219Z,34.56
2017-08-26T12:45:33.516Z,24.06
2017-08-26T12:48:01.803Z,26.00
2017-08-26T12:50:29.328Z,25.52
2017-08-26T12:52:57.598Z,25.08
2017-08-26T12:55:25.900Z,31.06
2017-08-26T12:57:54.165Z,25.22
2017-08-26T13:00:22.497Z,23.50
2017-08-26T13:02:50.774Z,23.22
2017-08-26T13:05:19.057Z,25.00
2017-08-26T13:07:47.354Z,25.70
2017-08-26T13:10:15.621Z,19.94
2017-08-26T13:12:43.946Z,19.34
2017-08-26T13:15:12.212Z,19.94
2017-08-26T13:17:40.475Z,15.10
2017-08-26T13:20:08.787Z,14.30
2017-08-26T13:22:37.050Z,18.20
2017-08-26T13:25:04.576Z,15.48
2017-08-26T13:27:32.885Z,16.06
2017-08-26T13:30:01.155Z,16.92
2017-08-26T13:32:29.423Z,13.64
2017-08-26T13:34:57.743Z,16.60
2017-08-26T13:37:26.001Z,15.26
2017-08-26T13:39:54.292Z,13.74
2017-08-26T13:42:22.565Z,16.88
2017-08-26T13:44:50.864Z,21.48
2017-08-26T13:47:19.125Z,16.68
2017-08-26T13:49:47.412Z,13.98
2017-08-26T13:52:15.706Z,18.34
2017-08-26T13:54:43.974Z,23.28
2017-08-26T13:57:12.267Z,15.42
2017-08-26T13:59:40.535Z,14.80
2017-08-26T14:02:08.840Z,14.38
2017-08-26T14:04:37.109Z,12.94
2017-08-26T14:07:05.417Z,14.38
2017-08-26T14:09:33.692Z,20.02
2017-08-26T14:12:01.989Z,31.12
2017-08-26T14:14:30.288Z,20.76
2017-08-26T14:16:58.545Z,18.80
2017-08-26T14:19:26.838Z,13.96
2017-08-26T14:21:55.108Z,15.54
2017-08-26T14:24:23.412Z,15.76
2017-08-26T14:26:51.723Z,15.04
2017-08-26T14:29:19.992Z,17.74
2017-08-26T14:31:47.493Z,14.94
2017-08-26T14:34:15.802Z,20.88
2017-08-26T14:36:44.072Z,14.34
2017-08-26T14:39:12.373Z,14.36
2017-08-26T14:41:40.632Z,18.62
2017-08-26T14:44:08.898Z,17.36
2017-08-26T14:46:37.192Z,10.54
2017-08-26T14:49:05.454Z,11.84
2017-08-26T14:51:32.993Z,11.12
2017-08-26T14:54:01.252Z,9.00
2017-08-26T14:56:29.516Z,10.30
2017-08-26T14:58:57.787Z,10.52
2017-08-26T15:01:26.049Z,9.74
2017-08-26T15:03:54.332Z,10.80
2017-08-26T15:06:22.642Z,12.76
2017-08-26T15:08:50.902Z,11.78
2017-08-26T15:11:19.170Z,11.86
2017-08-26T15:13:47.463Z,10.24
2017-08-26T15:16:15.720Z,10.52
2017-08-26T15:18:43.987Z,13.54
2017-08-26T15:21:12.283Z,9.78
2017-08-26T15:23:40.545Z,14.46
2017-08-26T15:26:08.842Z,9.62
2017-08-26T15:28:37.133Z,28.04
2017-08-26T15:31:05.426Z,10.58
2017-08-26T15:33:33.684Z,16.28
2017-08-26T15:36:01.987Z,12.06
2017-08-26T15:38:30.301Z,10.86
2017-08-26T15:40:58.598Z,11.56
2017-08-26T15:43:26.872Z,12.14
2017-08-26T15:45:55.145Z,16.86
2017-08-26T15:48:23.453Z,16.40
2017-08-26T15:50:51.718Z,13.34
2017-08-26T15:53:19.988Z,16.36
2017-08-26T15:55:48.301Z,12.84
2017-08-26T15:58:16.570Z,16.26
2017-08-26T16:00:44.870Z,14.78
2017-08-26T16:03:13.145Z,12.58
2017-08-26T16:05:41.448Z,11.64
2017-08-26T16:08:09.725Z,12.66
2017-08-26T16:10:37.997Z,13.90
2017-08-26T16:13:06.298Z,10.10
2017-08-26T16:15:34.565Z,12.24
2017-08-26T16:18:02.083Z,15.72
2017-08-26T16:20:30.375Z,12.40
2017-08-26T16:22:58.640Z,13.68
2017-08-26T16:25:26.910Z,11.66
2017-08-26T16:27:55.208Z,10.94
2017-08-26T16:30:22.706Z,15.44
2017-08-26T16:32:51.013Z,14.24
2017-08-26T16:35:19.280Z,22.30
2017-08-26T16:37:47.600Z,14.08
2017-08-26T16:40:15.867Z,14.94
2017-08-26T16:42:44.138Z,18.50
2017-08-26T16:45:12.433Z,14.60
2017-08-26T16:47:39.940Z,15.84
2017-08-26T16:50:08.221Z,14.22
2017-08-26T16:52:36.529Z,16.06
2017-08-26T16:55:04.793Z,16.80
2017-08-26T16:57:33.085Z,21.86
2017-08-26T17:00:01.355Z,23.24
2017-08-26T17:02:29.654Z,19.32
2017-08-26T17:04:57.952Z,16.58
2017-08-26T17:07:26.229Z,16.82
2017-08-26T17:09:54.537Z,16.72
2017-08-26T17:12:22.813Z,17.52
2017-08-26T17:14:50.351Z,18.14
2017-08-26T17:17:17.867Z,20.40
2017-08-26T17:19:46.209Z,16.16
2017-08-26T17:22:14.491Z,20.42
2017-08-26T17:24:42.770Z,20.40
2017-08-26T17:27:11.071Z,14.94
2017-08-26T17:29:39.334Z,13.74
2017-08-26T17:32:07.636Z,15.24
2017-08-26T17:34:35.904Z,11.90
2017-08-26T17:37:04.212Z,12.44
2017-08-26T17:39:32.489Z,10.84
2017-08-26T17:42:00.760Z,16.16
2017-08-26T17:44:29.052Z,13.02
2017-08-26T17:46:57.329Z,12.56
2017-08-26T17:49:25.650Z,12.76
2017-08-26T17:51:53.922Z,12.88
2017-08-26T17:54:22.208Z,13.78
2017-08-26T17:56:50.517Z,14.82
2017-08-26T17:59:18.828Z,11.70
2017-08-26T18:01:47.092Z,11.14
2017-08-26T18:04:15.368Z,14.20
2017-08-26T18:06:42.902Z,16.20
2017-08-26T18:09:11.200Z,10.96
2017-08-26T18:11:39.465Z,9.48
2017-08-26T18:14:07.729Z,9.42
2017-08-26T18:16:36.023Z,10.30
2017-08-26T18:19:04.334Z,10.72
2017-08-26T18:21:32.629Z,10.08
2017-08-26T18:24:00.929Z,9.62
2017-08-26T18:26:29.196Z,14.30
2017-08-26T18:28:57.501Z,10.66
2017-08-26T18:31:25.766Z,10.34
2017-08-26T18:33:54.029Z,11.64
2017-08-26T18:36:22.319Z,11.22
2017-08-26T18:38:50.583Z,8.96
2017-08-26T18:41:18.896Z,9.08
2017-08-26T18:43:47.157Z,10.34
2017-08-26T18:46:15.552Z,10.12
2017-08-26T18:48:43.844Z,25.88
2017-08-26T18:51:12.108Z,17.36
2017-08-26T18:53:40.413Z,13.14
2017-08-26T18:56:08.685Z,15.78
2017-08-26T18:58:36.996Z,12.82
2017-08-26T19:01:04.490Z,16.50
2017-08-26T19:03:32.765Z,10.40
2017-08-26T19:06:01.050Z,11.02
2017-08-26T19:08:29.320Z,11.74
2017-08-26T19:10:57.617Z,10.14
2017-08-26T19:13:25.891Z,11.04
2017-08-26T19:15:54.181Z,14.50
2017-08-26T19:18:22.485Z,16.40
2017-08-26T19:20:50.744Z,11.06
2017-08-26T19:23:19.005Z,10.92
2017-08-26T19:25:47.300Z,12.04
2017-08-26T19:28:15.600Z,13.26
2017-08-26T19:30:43.868Z,16.82
2017-08-26T19:33:12.165Z,12.88
2017-08-26T19:35:40.429Z,13.04
2017-08-26T19:38:08.750Z,11.86
2017-08-26T19:40:37.016Z,12.30
2017-08-26T19:43:05.285Z,12.42
2017-08-26T19:45:33.560Z,16.02
2017-08-26T19:48:01.867Z,12.94
2017-08-26T19:50:30.133Z,16.14
2017-08-26T19:52:58.449Z,13.18
2017-08-26T19:55:26.717Z,13.48
2017-08-26T19:57:54.980Z,13.78
2017-08-26T20:00:23.283Z,14.80
2017-08-26T20:02:51.550Z,13.84
2017-08-26T20:05:19.853Z,17.34
2017-08-26T20:07:48.119Z,15.76
2017-08-26T20:10:16.431Z,16.28
2017-08-26T20:12:44.706Z,15.30
2017-08-26T20:15:12.969Z,16.28
2017-08-26T20:17:41.290Z,15.40
2017-08-26T20:20:09.556Z,14.98
2017-08-26T20:22:37.822Z,16.02
2017-08-26T20:25:06.162Z,15.56
2017-08-26T20:27:33.661Z,16.06
2017-08-26T20:30:01.961Z,24.16
2017-08-26T20:32:30.224Z,17.12
2017-08-26T20:34:58.517Z,21.36
2017-08-26T20:37:26.795Z,20.00
2017-08-26T20:39:55.114Z,16.18
2017-08-26T20:42:23.381Z,16.90
2017-08-26T20:44:51.648Z,18.32
2017-08-26T20:47:19.952Z,27.06
2017-08-26T20:49:48.216Z,21.40
2017-08-26T20:52:16.491Z,18.76
2017-08-26T20:54:44.788Z,18.70
2017-08-26T20:57:13.065Z,18.64
2017-08-26T20:59:41.363Z,19.26
2017-08-26T21:02:09.691Z,19.54
2017-08-26T21:04:37.980Z,20.76
2017-08-26T21:07:06.246Z,20.26
2017-08-26T21:09:34.576Z,19.34
2017-08-26T21:12:02.849Z,19.60
2017-08-26T21:14:31.116Z,21.02
2017-08-26T21:16:59.422Z,25.88
2017-08-26T21:19:27.688Z,23.08
2017-08-26T21:21:55.969Z,22.50
2017-08-26T21:24:24.273Z,20.76
2017-08-26T21:26:52.555Z,20.92
2017-08-26T21:29:20.847Z,22.28
2017-08-26T21:31:49.124Z,21.04
2017-08-26T21:34:17.420Z,20.98
2017-08-26T21:36:45.679Z,21.80
2017-08-26T21:39:13.973Z,22.04
2017-08-26T21:41:42.246Z,22.68
2017-08-26T21:44:10.557Z,23.92
2017-08-26T21:46:38.838Z,26.36
2017-08-26T21:49:07.139Z,19.98
2017-08-26T21:51:35.412Z,24.10
2017-08-26T21:54:03.717Z,24.60
2017-08-26T21:56:31.217Z,23.40
2017-08-26T21:58:59.493Z,22.36
2017-08-26T22:01:27.800Z,22.48
2017-08-26T22:03:56.064Z,21.88
2017-08-26T22:06:24.361Z,23.80
2017-08-26T22:08:52.637Z,23.96
2017-08-26T22:11:20.935Z,24.10
2017-08-26T22:13:49.200Z,25.34
2017-08-26T22:16:16.749Z,25.98
2017-08-26T22:18:45.026Z,24.66
2017-08-26T22:21:13.296Z,23.42
2017-08-26T22:23:41.599Z,22.58
2017-08-26T22:26:09.925Z,22.74
2017-08-26T22:28:38.209Z,27.28
2017-08-26T22:31:06.474Z,23.32
2017-08-26T22:33:34.769Z,25.48
2017-08-26T22:36:03.029Z,23.42
2017-08-26T22:38:31.340Z,22.66
2017-08-26T22:40:59.601Z,25.24
2017-08-26T22:43:27.865Z,23.48
2017-08-26T22:45:56.178Z,25.02
2017-08-26T22:48:24.453Z,21.36
2017-08-26T22:50:52.713Z,28.48
2017-08-26T22:53:21.005Z,24.96
2017-08-26T22:55:49.272Z,24.14
2017-08-26T22:58:17.569Z,22.64
2017-08-26T23:00:45.832Z,25.88
2017-08-26T23:03:14.137Z,24.74
2017-08-26T23:05:42.424Z,24.02
2017-08-26T23:08:10.721Z,24.14
2017-08-26T23:10:39.001Z,26.62
2017-08-26T23:13:07.313Z,24.00
2017-08-26T23:15:35.588Z,22.60
2017-08-26T23:18:03.086Z,24.44
2017-08-26T23:20:31.384Z,23.36
2017-08-26T23:22:59.652Z,22.60
2017-08-26T23:25:27.951Z,22.90
2017-08-26T23:27:56.211Z,27.10
2017-08-26T23:30:24.523Z,24.90
2017-08-26T23:32:52.789Z,27.26
2017-08-26T23:35:21.054Z,22.34
2017-08-26T23:37:49.361Z,24.82
2017-08-26T23:40:17.642Z,22.78
2017-08-26T23:42:45.972Z,22.82
2017-08-26T23:45:14.247Z,22.64
2017-08-26T23:47:42.514Z,24.90
2017-08-26T23:50:10.819Z,23.64
2017-08-26T23:52:39.088Z,24.24
2017-08-26T23:55:07.365Z,26.30
2017-08-26T23:57:35.676Z,24.62
